Terminal Aerodrome Forecast
Issued by NWS

Home | Current Version | Previous Version | Text Only | Print | Product List | Glossary On
Versions: 1 2 3 4 5 6 7 8 9 10 11 12 13 14 15 16 17 18 19 20 21 22 23 24 25 26 27 28 29
000
FTUS42 KCAE 150300 AAC
TAFDNL
TAF AMD
KDNL 150336Z 1504/1524 03005KT P6SM OVC015
     FM150700 VRB03KT P6SM OVC007
     FM150900 VRB03KT 3SM BR OVC003
     FM151400 VRB03KT P6SM OVC007
     FM151800 VRB03KT P6SM OVC025
     FM152000 VRB04KT P6SM OVC035=

USA.gov is the U.S. government's official web portal to all federal, state and local government web resources and services.